createdAt,value
2023-04-02T00:00:19.989Z,99479.22
2023-04-02T00:03:23.724Z,99479.62
2023-04-02T00:06:40.622Z,99480.59
2023-04-02T00:09:44.325Z,99471.59
2023-04-02T00:13:20.021Z,99480.34
2023-04-02T00:16:25.233Z,99479.72
2023-04-02T00:19:53.250Z,99471.91
2023-04-02T00:22:56.980Z,99474.94
2023-04-02T00:26:00.464Z,99473.84
2023-04-02T00:29:06.391Z,99471.72
2023-04-02T00:32:20.409Z,99458.47
2023-04-02T00:35:29.831Z,99464.03
2023-04-02T00:38:35.478Z,99473.22
2023-04-02T00:41:39.229Z,99478.75
2023-04-02T00:44:45.282Z,99481.19
2023-04-02T00:47:48.747Z,99482.41
2023-04-02T00:50:54.594Z,99479.62
2023-04-02T00:54:04.117Z,99478.28
2023-04-02T00:57:16.583Z,99482.31
2023-04-02T01:00:20.494Z,99481.19
2023-04-02T01:03:37.486Z,99480.88
2023-04-02T01:06:44.132Z,99486.38
2023-04-02T01:10:04.265Z,99481.59
2023-04-02T01:13:30.801Z,99481.59
2023-04-02T01:16:50.535Z,99471.53
2023-04-02T01:20:36.891Z,99483.47
2023-04-02T01:23:49.491Z,99472.66
2023-04-02T01:27:01.180Z,99485.25
2023-04-02T01:30:07.499Z,99484.22
2023-04-02T01:33:12.649Z,99485.97
2023-04-02T01:36:20.708Z,99476.94
2023-04-02T01:39:42.848Z,99493.50
2023-04-02T01:42:58.416Z,99487.72
2023-04-02T01:46:24.132Z,99501.84
2023-04-02T01:49:28.786Z,99499.44
2023-04-02T01:52:39.637Z,99497.28
2023-04-02T01:55:47.226Z,99500.13
2023-04-02T01:58:51.040Z,99502.28
2023-04-02T02:02:03.930Z,99512.41
2023-04-02T02:05:17.621Z,99510.75
2023-04-02T02:08:43.010Z,99508.25
2023-04-02T02:11:47.023Z,99512.28
2023-04-02T02:14:52.394Z,99508.03
2023-04-02T02:18:03.259Z,99506.34
2023-04-02T02:21:08.537Z,99507.63
2023-04-02T02:24:29.322Z,99515.19
2023-04-02T02:28:01.637Z,99512.53
2023-04-02T02:31:18.644Z,99510.25
2023-04-02T02:34:30.050Z,99504.84
2023-04-02T02:37:42.038Z,99506.75
2023-04-02T02:40:48.700Z,99507.72
2023-04-02T02:44:05.096Z,99509.88
2023-04-02T02:47:23.719Z,99516.72
2023-04-02T02:50:31.791Z,99519.81
2023-04-02T02:53:53.038Z,99517.62
2023-04-02T02:57:04.271Z,99522.84
2023-04-02T03:00:11.793Z,99516.91
2023-04-02T03:03:24.259Z,99518.22
2023-04-02T03:06:28.319Z,99520.66
2023-04-02T03:10:00.173Z,99515.94
2023-04-02T03:13:23.891Z,99517.03
2023-04-02T03:16:45.899Z,99516.47
2023-04-02T03:20:01.923Z,99514.16
2023-04-02T03:23:13.079Z,99510.97
2023-04-02T03:26:34.260Z,99518.00
2023-04-02T03:29:44.046Z,99518.16
2023-04-02T03:32:52.726Z,99526.97
2023-04-02T03:36:25.875Z,99521.37
2023-04-02T03:39:53.602Z,99529.44
2023-04-02T03:43:20.680Z,99528.03
2023-04-02T03:46:37.250Z,99526.06
2023-04-02T03:49:48.224Z,99529.28
2023-04-02T03:52:52.142Z,99538.22
2023-04-02T03:55:57.288Z,99534.94
2023-04-02T03:59:41.618Z,99526.28
2023-04-02T04:02:53.530Z,99544.72
2023-04-02T04:06:02.520Z,99539.09
2023-04-02T04:09:22.908Z,99548.56
2023-04-02T04:12:47.179Z,99548.81
2023-04-02T04:16:02.990Z,99549.31
2023-04-02T04:19:18.265Z,99565.75
2023-04-02T04:22:33.948Z,99562.81
2023-04-02T04:25:38.184Z,99568.25
2023-04-02T04:29:17.091Z,99568.44
2023-04-02T04:32:35.431Z,99575.16
2023-04-02T04:35:46.976Z,99568.63
2023-04-02T04:38:55.745Z,99564.63
2023-04-02T04:42:02.780Z,99572.66
2023-04-02T04:45:09.579Z,99570.41
2023-04-02T04:48:21.482Z,99578.62
2023-04-02T04:51:53.666Z,99581.25
2023-04-02T04:54:57.685Z,99583.06
2023-04-02T04:58:08.695Z,99581.00
2023-04-02T05:01:38.567Z,99581.41
2023-04-02T05:04:44.744Z,99587.31
2023-04-02T05:07:59.856Z,99591.38
2023-04-02T05:11:40.173Z,99585.06
2023-04-02T05:14:58.364Z,99575.88
2023-04-02T05:18:22.987Z,99581.72
2023-04-02T05:21:57.745Z,99587.41
2023-04-02T05:25:17.079Z,99590.34
2023-04-02T05:28:30.787Z,99603.34
2023-04-02T05:32:17.907Z,99605.91
2023-04-02T05:35:29.903Z,99599.50
2023-04-02T05:38:37.547Z,99609.00
2023-04-02T05:41:45.092Z,99602.47
2023-04-02T05:45:16.258Z,99606.63
2023-04-02T05:48:43.449Z,99603.22
2023-04-02T05:51:52.948Z,99607.34
2023-04-02T05:55:19.736Z,99610.13
2023-04-02T05:58:36.744Z,99608.16
2023-04-02T06:01:51.988Z,99609.22
2023-04-02T06:05:11.670Z,99610.94
2023-04-02T06:08:24.126Z,99612.53
2023-04-02T06:11:37.439Z,99615.81
2023-04-02T06:14:41.182Z,99623.38
2023-04-02T06:18:06.541Z,99623.69
2023-04-02T06:21:15.589Z,99620.41
2023-04-02T06:24:24.526Z,99623.75
2023-04-02T06:27:29.669Z,99630.38
2023-04-02T06:30:39.719Z,99620.87
2023-04-02T06:33:44.069Z,99630.22
2023-04-02T06:36:49.144Z,99607.31
2023-04-02T06:39:53.494Z,99621.03
2023-04-02T06:42:59.956Z,99627.72
2023-04-02T06:46:11.265Z,99625.00
2023-04-02T06:49:31.069Z,99631.59
2023-04-02T06:52:44.846Z,99624.91
2023-04-02T06:56:03.435Z,99626.66
2023-04-02T06:59:07.937Z,99626.34
2023-04-02T07:02:25.296Z,99632.91
2023-04-02T07:05:28.944Z,99638.50
2023-04-02T07:08:32.765Z,99629.81
2023-04-02T07:11:36.853Z,99616.06
2023-04-02T07:14:40.993Z,99638.38
2023-04-02T07:17:44.319Z,99632.00
2023-04-02T07:20:47.869Z,99631.84
2023-04-02T07:23:51.396Z,99640.91
2023-04-02T07:26:55.957Z,99639.59
2023-04-02T07:30:00.134Z,99628.56
2023-04-02T07:33:03.596Z,99636.56
2023-04-02T07:36:07.042Z,99638.25
2023-04-02T07:39:10.778Z,99650.13
2023-04-02T07:42:13.874Z,99652.50
2023-04-02T07:45:17.277Z,99660.41
2023-04-02T07:48:20.774Z,99661.81
2023-04-02T07:51:27.917Z,99661.50
2023-04-02T07:54:33.454Z,99669.59
2023-04-02T07:57:44.286Z,99672.09
2023-04-02T08:00:48.932Z,99670.28
2023-04-02T08:03:57.746Z,99671.25
2023-04-02T08:07:01.739Z,99672.19
2023-04-02T08:10:06.734Z,99669.38
2023-04-02T08:13:10.061Z,99670.84
2023-04-02T08:16:13.791Z,99671.00
2023-04-02T08:19:17.991Z,99672.06
2023-04-02T08:22:21.984Z,99684.22
2023-04-02T08:25:25.176Z,99678.50
2023-04-02T08:28:28.698Z,99676.75
2023-04-02T08:31:32.464Z,99681.94
2023-04-02T08:34:36.009Z,99676.53
2023-04-02T08:37:39.491Z,99686.66
2023-04-02T08:40:45.664Z,99678.78
2023-04-02T08:44:29.815Z,99678.16
2023-04-02T08:47:41.184Z,99672.34
2023-04-02T08:50:45.976Z,99684.56
2023-04-02T08:53:50.581Z,99678.00
2023-04-02T08:57:06.688Z,99683.75
2023-04-02T09:00:13.776Z,99689.81
2023-04-02T09:03:28.013Z,99690.25
2023-04-02T09:06:31.813Z,99692.12
2023-04-02T09:09:38.314Z,99689.19
2023-04-02T09:12:47.149Z,99692.84
2023-04-02T09:15:53.673Z,99707.56
2023-04-02T09:18:57.184Z,99700.81
2023-04-02T09:22:20.945Z,99698.19
2023-04-02T09:25:32.449Z,99720.63
2023-04-02T09:28:36.397Z,99712.13
2023-04-02T09:31:45.740Z,99708.41
2023-04-02T09:34:49.028Z,99714.00
2023-04-02T09:38:17.521Z,99710.63
2023-04-02T09:41:21.150Z,99718.75
2023-04-02T09:44:31.285Z,99717.25
2023-04-02T09:47:34.499Z,99714.56
2023-04-02T09:50:39.152Z,99713.53
2023-04-02T09:53:43.779Z,99715.34
2023-04-02T09:57:02.311Z,99713.56
2023-04-02T10:00:31.392Z,99715.88
2023-04-02T10:03:46.684Z,99723.47
2023-04-02T10:06:50.908Z,99728.56
2023-04-02T10:10:04.633Z,99728.88
2023-04-02T10:13:32.014Z,99731.72
2023-04-02T10:16:52.539Z,99733.59
2023-04-02T10:20:01.750Z,99722.81
2023-04-02T10:23:06.462Z,99719.66
2023-04-02T10:26:17.216Z,99722.66
2023-04-02T10:29:36.213Z,99713.69
2023-04-02T10:32:48.996Z,99721.16
2023-04-02T10:36:23.580Z,99708.09
2023-04-02T10:39:39.681Z,99725.66
2023-04-02T10:43:10.287Z,99718.41
2023-04-02T10:46:32.452Z,99719.16
2023-04-02T10:49:59.616Z,99709.22
2023-04-02T10:53:16.181Z,99711.03
2023-04-02T10:56:22.958Z,99712.16
2023-04-02T10:59:35.650Z,99698.56
2023-04-02T11:03:08.277Z,99709.91
2023-04-02T11:06:23.193Z,99699.91
2023-04-02T11:09:31.928Z,99702.41
2023-04-02T11:12:44.829Z,99698.19
2023-04-02T11:15:48.842Z,99702.41
2023-04-02T11:19:32.026Z,99700.12
2023-04-02T11:22:35.720Z,99698.78
2023-04-02T11:25:39.831Z,99711.97
2023-04-02T11:28:44.445Z,99697.06
2023-04-02T11:31:49.088Z,99709.31
2023-04-02T11:35:05.950Z,99710.19
2023-04-02T11:38:10.391Z,99704.22
2023-04-02T11:41:14.367Z,99691.53
2023-04-02T11:44:24.360Z,99692.12
2023-04-02T11:47:30.569Z,99691.59
2023-04-02T11:50:35.016Z,99688.31
2023-04-02T11:53:42.819Z,99695.69
2023-04-02T11:57:01.442Z,99695.78
2023-04-02T12:00:31.079Z,99704.37
2023-04-02T12:04:06.975Z,99699.38
2023-04-02T12:07:18.089Z,99698.81
2023-04-02T12:10:32.752Z,99700.00
2023-04-02T12:13:42.472Z,99691.44
2023-04-02T12:16:47.999Z,99693.53
2023-04-02T12:19:55.551Z,99692.91
2023-04-02T12:22:59.270Z,99687.97
2023-04-02T12:26:24.300Z,99677.50
2023-04-02T12:29:29.221Z,99673.03
2023-04-02T12:32:33.397Z,99676.22
2023-04-02T12:35:37.313Z,99671.31
2023-04-02T12:38:52.526Z,99663.41
2023-04-02T12:41:56.485Z,99666.84
2023-04-02T12:45:00.450Z,99669.88
2023-04-02T12:48:06.325Z,99669.28
2023-04-02T12:51:11.123Z,99666.00
2023-04-02T12:54:20.860Z,99657.75
2023-04-02T12:57:27.159Z,99668.78
2023-04-02T13:00:33.475Z,99671.59
2023-04-02T13:03:38.095Z,99645.59
2023-04-02T13:06:52.260Z,99659.47
2023-04-02T13:10:04.570Z,99664.13
2023-04-02T13:13:16.697Z,99672.00
2023-04-02T13:16:19.947Z,99665.22
2023-04-02T13:19:32.457Z,99667.47
2023-04-02T13:22:36.750Z,99667.97
2023-04-02T13:25:40.865Z,99667.66
2023-04-02T13:28:57.128Z,99660.59
2023-04-02T13:32:06.817Z,99660.63
2023-04-02T13:35:10.071Z,99659.97
2023-04-02T13:38:14.728Z,99661.56
2023-04-02T13:41:22.751Z,99661.53
2023-04-02T13:44:29.457Z,99664.56
2023-04-02T13:47:32.674Z,99659.97
2023-04-02T13:50:37.435Z,99655.53
2023-04-02T13:53:42.393Z,99659.31
2023-04-02T13:56:47.685Z,99665.78
2023-04-02T13:59:50.851Z,99660.00
2023-04-02T14:03:01.731Z,99653.09
2023-04-02T14:06:24.036Z,99658.03
2023-04-02T14:09:30.057Z,99674.91
2023-04-02T14:12:40.110Z,99689.31
2023-04-02T14:16:16.953Z,99713.34
2023-04-02T14:20:06.074Z,99729.25
2023-04-02T14:23:17.462Z,99717.41
2023-04-02T14:26:50.491Z,99744.09
2023-04-02T14:30:33.387Z,99747.03
2023-04-02T14:33:59.004Z,99745.03
2023-04-02T14:37:18.329Z,99763.25
2023-04-02T14:40:27.855Z,99777.69
2023-04-02T14:43:50.618Z,99771.25
2023-04-02T14:47:09.463Z,99777.00
2023-04-02T14:50:18.947Z,99792.44
2023-04-02T14:53:34.088Z,99790.78
2023-04-02T14:56:57.793Z,99799.09
2023-04-02T15:00:17.124Z,99801.47
2023-04-02T15:03:38.476Z,99790.75
2023-04-02T15:07:00.231Z,99789.09
2023-04-02T15:10:11.308Z,99811.97
2023-04-02T15:13:23.353Z,99807.28
2023-04-02T15:16:27.966Z,99807.53
2023-04-02T15:19:33.366Z,99800.69
2023-04-02T15:22:45.022Z,99766.19
2023-04-02T15:25:58.915Z,99764.03
2023-04-02T15:29:39.651Z,99798.22
2023-04-02T15:32:44.506Z,99787.44
2023-04-02T15:35:56.669Z,99800.25
2023-04-02T15:39:00.574Z,99791.16
2023-04-02T15:42:31.333Z,99793.19
2023-04-02T15:46:13.684Z,99795.47
2023-04-02T15:49:46.222Z,99778.50
2023-04-02T15:53:04.975Z,99817.03
2023-04-02T15:56:34.382Z,99807.50
2023-04-02T16:00:11.562Z,99819.31
2023-04-02T16:03:41.595Z,99824.44
2023-04-02T16:07:11.219Z,99834.81
2023-04-02T16:10:41.293Z,99831.59
2023-04-02T16:13:47.779Z,99821.97
2023-04-02T16:16:55.191Z,99832.72
2023-04-02T16:20:20.635Z,99836.69
2023-04-02T16:23:40.180Z,99837.91
2023-04-02T16:27:15.389Z,99843.81
2023-04-02T16:30:41.201Z,99849.28
2023-04-02T16:33:57.253Z,99846.00
2023-04-02T16:37:01.485Z,99847.84
2023-04-02T16:40:21.700Z,99855.41
2023-04-02T16:43:38.346Z,99862.47
2023-04-02T16:47:00.794Z,99860.00
2023-04-02T16:50:12.149Z,99872.31
2023-04-02T16:53:27.349Z,99863.41
2023-04-02T16:56:34.144Z,99880.44
2023-04-02T16:59:42.338Z,99868.25
2023-04-02T17:03:01.283Z,99873.88
2023-04-02T17:06:09.891Z,99883.81
2023-04-02T17:09:28.226Z,99885.13
2023-04-02T17:13:14.449Z,99893.56
2023-04-02T17:16:32.223Z,99899.81
2023-04-02T17:19:36.934Z,99902.87
2023-04-02T17:22:42.388Z,99895.31
2023-04-02T17:25:56.860Z,99900.25
2023-04-02T17:29:07.908Z,99905.91
2023-04-02T17:32:26.993Z,99919.63
2023-04-02T17:36:02.428Z,99916.25
2023-04-02T17:39:25.171Z,99928.94
2023-04-02T17:42:46.023Z,99935.09
2023-04-02T17:45:57.303Z,99927.41
2023-04-02T17:49:21.837Z,99935.31
2023-04-02T17:52:54.075Z,99950.63
2023-04-02T17:56:04.048Z,99952.69
2023-04-02T17:59:27.376Z,99955.22
2023-04-02T18:02:49.495Z,99966.56
2023-04-02T18:06:09.040Z,99975.63
2023-04-02T18:09:20.466Z,99958.28
2023-04-02T18:12:46.426Z,99989.03
2023-04-02T18:16:28.939Z,99993.97
2023-04-02T18:20:03.159Z,99999.88
2023-04-02T18:23:33.114Z,100013.09
2023-04-02T18:26:51.731Z,100014.69
2023-04-02T18:30:14.178Z,100025.44
2023-04-02T18:33:34.540Z,100025.94
2023-04-02T18:37:06.049Z,100035.12
2023-04-02T18:40:41.841Z,100046.84
2023-04-02T18:44:02.901Z,100051.69
2023-04-02T18:47:28.864Z,100055.53
2023-04-02T18:50:37.754Z,100061.88
2023-04-02T18:53:44.447Z,100078.00
2023-04-02T18:56:49.288Z,100059.09
2023-04-02T19:00:05.313Z,100076.66
2023-04-02T19:03:14.730Z,100082.62
2023-04-02T19:06:29.686Z,100092.34
2023-04-02T19:09:38.332Z,100091.09
2023-04-02T19:12:43.426Z,100097.41
2023-04-02T19:16:00.912Z,100111.94
2023-04-02T19:19:18.083Z,100111.28
2023-04-02T19:22:44.575Z,100117.81
2023-04-02T19:25:53.250Z,100113.19
2023-04-02T19:29:39.106Z,100120.44
2023-04-02T19:33:18.278Z,100133.06
2023-04-02T19:36:46.409Z,100141.72
2023-04-02T19:40:05.532Z,100136.31
2023-04-02T19:43:11.526Z,100134.38
2023-04-02T19:46:17.199Z,100146.72
2023-04-02T19:49:29.575Z,100148.09
2023-04-02T19:52:37.084Z,100164.38
2023-04-02T19:55:46.544Z,100168.12
2023-04-02T19:58:52.033Z,100168.53
2023-04-02T20:01:59.639Z,100169.06
2023-04-02T20:05:03.848Z,100173.34
2023-04-02T20:08:11.571Z,100191.25
2023-04-02T20:11:18.224Z,100189.53
2023-04-02T20:14:23.297Z,100201.44
2023-04-02T20:17:29.457Z,100194.50
2023-04-02T20:20:35.501Z,100196.59
2023-04-02T20:23:41.094Z,100170.97
2023-04-02T20:26:46.637Z,100219.75
2023-04-02T20:30:07.469Z,100219.94
2023-04-02T20:33:12.160Z,100228.97
2023-04-02T20:36:18.007Z,100225.53
2023-04-02T20:39:22.134Z,100243.44
2023-04-02T20:42:27.193Z,100249.09
2023-04-02T20:45:32.494Z,100223.00
2023-04-02T20:48:36.926Z,100258.25
2023-04-02T20:51:59.182Z,100258.41
2023-04-02T20:55:19.651Z,100230.91
2023-04-02T20:58:22.999Z,100259.28
2023-04-02T21:01:30.250Z,100235.72
2023-04-02T21:04:33.392Z,100271.69
2023-04-02T21:07:36.987Z,100273.72
2023-04-02T21:10:40.893Z,100277.47
2023-04-02T21:13:44.846Z,100276.78
2023-04-02T21:16:48.076Z,100283.97
2023-04-02T21:19:52.641Z,100288.88
2023-04-02T21:22:55.858Z,100296.19
2023-04-02T21:26:06.397Z,100294.13
2023-04-02T21:29:11.613Z,100310.69
2023-04-02T21:32:21.294Z,100307.47
2023-04-02T21:35:25.359Z,100308.88
2023-04-02T21:38:28.946Z,100330.75
2023-04-02T21:41:34.994Z,100327.44
2023-04-02T21:44:38.616Z,100322.56
2023-04-02T21:47:43.129Z,100288.25
2023-04-02T21:50:46.782Z,100319.63
2023-04-02T21:53:51.025Z,100329.84
2023-04-02T21:56:54.479Z,100335.97
2023-04-02T21:59:57.703Z,100325.53
2023-04-02T22:03:01.339Z,100338.37
2023-04-02T22:06:10.622Z,100328.87
2023-04-02T22:09:19.543Z,100331.87
2023-04-02T22:12:24.100Z,100328.53
2023-04-02T22:15:27.203Z,100330.75
2023-04-02T22:18:31.517Z,100336.16
2023-04-02T22:21:36.348Z,100340.25
2023-04-02T22:24:39.762Z,100354.09
2023-04-02T22:27:42.896Z,100352.37
2023-04-02T22:30:46.486Z,100358.78
2023-04-02T22:33:50.706Z,100361.38
2023-04-02T22:36:54.066Z,100355.94
2023-04-02T22:39:57.263Z,100362.37
2023-04-02T22:43:00.989Z,100348.00
2023-04-02T22:46:05.804Z,100368.16
2023-04-02T22:49:11.118Z,100371.72
2023-04-02T22:52:14.265Z,100364.59
2023-04-02T22:55:18.167Z,100367.34
2023-04-02T22:58:22.738Z,100373.69
2023-04-02T23:01:29.818Z,100372.97
2023-04-02T23:04:33.656Z,100369.66
2023-04-02T23:07:37.141Z,100376.09
2023-04-02T23:10:40.493Z,100368.41
2023-04-02T23:13:44.762Z,100369.28
2023-04-02T23:16:47.779Z,100374.97
2023-04-02T23:19:51.161Z,100374.88
2023-04-02T23:22:57.181Z,100383.31
2023-04-02T23:26:05.584Z,100386.00
2023-04-02T23:29:09.921Z,100389.69
2023-04-02T23:32:13.455Z,100391.88
2023-04-02T23:35:17.259Z,100400.75
2023-04-02T23:38:20.757Z,100376.53
2023-04-02T23:41:26.730Z,100404.16
2023-04-02T23:44:30.542Z,100399.19
2023-04-02T23:47:33.643Z,100400.72
2023-04-02T23:50:37.204Z,100391.66
2023-04-02T23:53:40.745Z,100400.53
2023-04-02T23:56:44.158Z,100401.34
2023-04-02T23:59:47.531Z,100406.66
